Latest Weather Observations for Bendigo

IDV60801

Issued at 5:52 pm EST Tuesday 26 May 2020 (issued every 10 minutes, with the page automatically refreshed every 10 minutes)

About weather observations | Map of weather stations | Latest weather observations for VIC | Other Formats
Station Details ID: 081123 Name: BENDIGO AIRPORT Lat: -36.74 Lon: 144.33 Height: 209.17 m
Data from the previous 72 hours. | See also: Recent months at Bendigo
Date/Time
EST
Temp
°C
App
Temp
°C
Dew
Point
°C
Rel
Hum
%
Delta-T
°C
Wind Press
QNH
hPa
Press
MSL
hPa
Rain since
9am
mm
Dir  Spd
km/h
Gust
km/h
Spd
kts
Gust
kts
26/05:30pm 10.7 8.9 7.0 78 1.8 ENE 6 7 3 4 1021.5 1021.7 0.0
26/05:00pm 13.7 11.9 7.2 65 3.2 NE 6 7 3 4 1021.6 1021.8 0.0
26/04:30pm 14.7 12.0 7.5 62 3.6 NE 11 13 6 7 1021.5 1021.7 0.0
26/04:00pm 15.3 12.7 7.6 60 3.9 NE 11 17 6 9 1021.7 1021.9 0.0
26/03:30pm 15.3 12.5 7.1 58 4.1 NE 11 17 6 9 1021.7 1021.9 0.0
26/03:00pm 15.8 13.5 7.3 57 4.2 NNE 9 15 5 8 1021.7 1021.9 0.0
26/02:30pm 15.5 12.6 6.5 55 4.4 NE 11 17 6 9 1022.1 1022.2 0.0
26/02:00pm 15.5 12.9 6.2 54 4.5 NE 9 15 5 8 1022.2 1022.3 0.0
26/01:30pm 15.0 12.1 6.6 57 4.1 N 11 17 6 9 1022.6 1022.7 0.0
26/01:00pm 14.7 11.4 6.3 57 4.1 NNE 13 17 7 9 1022.9 1023.0 0.0
26/12:30pm 14.6 11.0 6.7 59 3.9 NNE 15 20 8 11 1023.3 1023.4 0.0
26/12:00pm 14.1 10.7 5.7 57 4.0 NNE 13 20 7 11 1023.9 1024.1 0.0
26/11:30am 13.7 9.4 5.1 56 4.1 NE 17 24 9 13 1024.2 1024.4 0.0
26/11:00am 13.0 9.9 5.7 61 3.4 ENE 11 17 6 9 1024.6 1024.8 0.0
26/10:30am 12.2 9.1 5.4 63 3.2 ENE 11 17 6 9 1024.6 1024.8 0.0
26/10:00am 10.6 7.4 5.2 69 2.5 ESE 11 13 6 7 1024.9 1025.1 0.0
26/09:30am 9.5 6.6 4.9 73 2.1 SE 9 15 5 8 1024.9 1025.1 0.0
26/09:00am 8.4 5.9 5.0 79 1.5 SSE 7 11 4 6 1025.1 1025.3 0.2
26/08:30am 6.5 3.2 4.7 88 0.8 SSE 11 15 6 8 1025.0 1025.2 0.2
26/08:00am 5.1 1.4 4.2 94 0.4 SSE 13 17 7 9 1024.9 1025.1 0.2
26/07:30am 2.7 -0.3 1.8 94 0.4 S 7 13 4 7 1024.9 1025.1 0.2
26/07:00am 3.0 0.6 2.0 93 0.4 S 4 6 2 3 1024.7 1024.9 0.2
26/06:30am 3.5 0.7 2.3 92 0.5 SSE 6 7 3 4 1024.3 1024.5 0.2
26/06:00am 3.6 -0.1 2.4 92 0.5 SE 11 13 6 7 1024.0 1024.2 0.2
26/05:30am 3.3 -0.1 2.1 92 0.5 SSE 9 11 5 6 1023.8 1024.0 0.2
26/05:00am 3.9 2.3 2.6 91 0.5 CALM 0 0 0 0 1023.7 1023.8 0.2
26/04:30am 5.1 2.6 3.9 92 0.5 S 6 9 3 5 1023.6 1023.7 0.2
26/04:00am 4.8 1.7 3.6 92 0.5 SSE 9 11 5 6 1023.6 1023.7 0.2
26/03:30am 4.8 1.3 3.6 92 0.5 SSE 11 15 6 8 1023.4 1023.5 0.2
26/03:00am 4.4 1.2 3.1 91 0.5 SSE 9 9 5 5 1023.6 1023.7 0.2
26/02:30am 5.1 1.6 3.4 89 0.7 SE 11 13 6 7 1023.5 1023.6 0.0
26/02:00am 5.9 1.8 4.2 89 0.7 SSE 15 17 8 9 1023.6 1023.7 0.0
26/01:30am 6.3 2.2 4.5 88 0.8 SSE 15 17 8 9 1023.7 1023.8 0.0
26/01:00am 6.6 2.5 4.6 87 0.9 SSE 15 17 8 9 1023.9 1024.1 0.0
26/12:30am 6.5 2.4 4.5 87 0.9 SSE 15 19 8 10 1024.1 1024.3 0.0
26/12:00am 6.5 2.5 4.8 89 0.7 SSE 15 17 8 9 1024.0 1024.2 0.0
 
Date/Time
EST
Temp
°C
App
Temp
°C
Dew
Point
°C
Rel
Hum
%
Delta-T
°C
Wind Press
QNH
hPa
Press
MSL
hPa
Rain since
9am
mm
Dir  Spd
km/h
Gust
km/h
Spd
kts
Gust
kts
25/11:30pm 6.1 2.5 5.1 93 0.4 SSE 13 17 7 9 1024.1 1024.3 0.0
25/11:00pm 4.9 1.5 3.9 93 0.4 SSE 11 13 6 7 1024.1 1024.3 0.0
25/10:30pm 4.4 2.2 3.1 91 0.5 SSW 4 6 2 3 1024.4 1024.6 0.0
25/10:00pm 5.5 3.1 4.2 91 0.6 S 6 7 3 4 1024.4 1024.6 0.0
25/09:30pm 5.9 2.2 4.5 91 0.6 SSE 13 13 7 7 1024.1 1024.3 0.0
25/09:00pm 6.1 2.4 4.6 90 0.7 SSE 13 13 7 7 1024.1 1024.3 0.0
25/08:30pm 6.8 4.0 5.3 90 0.7 S 9 11 5 6 1024.2 1024.4 0.0
25/08:00pm 6.9 3.7 5.2 89 0.8 SSE 11 15 6 8 1024.0 1024.2 0.0
25/07:30pm 7.4 4.7 5.5 88 0.9 SSE 9 11 5 6 1023.7 1023.8 0.0
25/07:00pm 7.8 4.8 5.9 88 0.9 SSE 11 15 6 8 1023.7 1023.8 0.0
25/06:30pm 7.3 4.5 5.0 85 1.0 SSE 9 9 5 5 1023.7 1023.8 0.0
25/06:00pm 9.1 7.1 6.4 83 1.3 SSE 6 7 3 4 1023.5 1023.6 0.0
25/05:30pm 10.4 8.3 5.8 73 2.1 S 6 7 3 4 1023.5 1023.6 0.0
25/05:00pm 13.1 11.1 6.2 63 3.3 SSE 6 7 3 4 1023.3 1023.4 0.0
25/04:30pm 13.7 10.8 6.3 61 3.6 SE 11 15 6 8 1023.0 1023.1 0.0
25/04:00pm 14.2 10.8 6.1 58 3.9 ESE 13 19 7 10 1022.8 1022.9 0.0
25/03:30pm 14.4 10.7 6.3 58 3.9 ESE 15 24 8 13 1022.8 1022.9 0.0
25/03:00pm 14.6 10.8 5.7 55 4.3 SE 15 20 8 11 1022.9 1023.0 0.0
25/02:30pm 14.7 11.3 5.8 55 4.3 SE 13 19 7 10 1022.7 1022.8 0.0
25/02:00pm 14.7 10.8 5.5 54 4.4 SE 15 20 8 11 1022.7 1022.8 0.0
25/01:30pm 14.5 10.2 5.3 54 4.4 ESE 17 24 9 13 1022.7 1022.8 0.0
25/01:00pm 14.3 9.5 4.9 53 4.4 ESE 19 30 10 16 1022.6 1022.7 0.0
25/12:30pm 14.1 9.6 6.0 58 3.9 SE 19 30 10 16 1022.9 1023.0 0.0
25/12:00pm 13.7 8.5 5.3 57 4.0 SE 22 30 12 16 1023.2 1023.3 0.0
25/11:30am 13.3 7.2 4.7 56 4.0 SE 26 37 14 20 1023.5 1023.6 0.0
25/11:00am 12.9 6.5 5.1 59 3.6 SE 28 37 15 20 1023.7 1023.8 0.0
25/10:30am 12.3 5.5 5.0 61 3.4 SE 30 39 16 21 1023.8 1024.0 0.0
25/10:00am 11.6 6.9 5.0 64 3.0 SSE 19 28 10 15 1024.0 1024.2 0.0
25/09:30am 10.8 5.9 5.1 68 2.6 SE 20 32 11 17 1023.9 1024.1 0.0
25/09:00am 9.8 5.2 5.4 74 2.0 SSE 19 26 10 14 1023.9 1024.1 0.2
25/08:30am 7.8 5.1 5.4 85 1.1 S 9 17 5 9 1023.7 1023.8 0.2
25/08:00am 5.4 2.9 3.9 90 0.6 S 6 7 3 4 1023.4 1023.5 0.2
25/07:30am 4.9 1.4 3.4 90 0.6 S 11 13 6 7 1023.1 1023.2 0.2
25/07:00am 3.7 1.0 2.7 93 0.4 SSE 6 7 3 4 1022.9 1023.0 0.2
25/06:30am 2.9 -0.9 1.9 93 0.4 SE 11 13 6 7 1022.7 1022.8 0.2
25/06:00am 2.1 -1.1 0.8 91 0.5 SSW 7 9 4 5 1022.8 1022.9 0.2
25/05:30am 3.1 -0.4 1.5 89 0.6 S 9 11 5 6 1022.9 1023.0 0.0
25/05:00am 4.2 0.5 2.6 89 0.6 SSW 11 13 6 7 1023.0 1023.1 0.0
25/04:30am 4.3 1.0 2.5 88 0.7 SW 9 11 5 6 1022.9 1023.0 0.0
25/04:00am 6.5 2.7 4.0 84 1.1 SSW 13 17 7 9 1022.8 1022.9 0.0
25/03:30am 4.2 0.6 3.2 93 0.4 SW 11 15 6 8 1022.9 1023.0 0.0
25/03:00am 3.4 0.6 2.2 92 0.5 SW 6 9 3 5 1022.9 1023.0 0.0
25/02:30am 4.3 1.2 3.4 94 0.4 WSW 9 11 5 6 1023.2 1023.3 0.0
25/02:00am 4.0 1.2 3.0 93 0.4 SW 7 9 4 5 1023.0 1023.1 0.0
25/01:30am 3.3 0.5 2.0 91 0.5 SSW 6 7 3 4 1022.8 1022.9 0.0
25/01:00am 4.5 1.7 3.2 91 0.5 S 7 9 4 5 1023.0 1023.1 0.0
25/12:30am 4.5 1.6 2.8 89 0.7 S 7 9 4 5 1023.2 1023.3 0.0
25/12:00am 6.2 3.7 3.9 85 1.0 S 6 9 3 5 1023.0 1023.1 0.0
 
Date/Time
EST
Temp
°C
App
Temp
°C
Dew
Point
°C
Rel
Hum
%
Delta-T
°C
Wind Press
QNH
hPa
Press
MSL
hPa
Rain since
9am
mm
Dir  Spd
km/h
Gust
km/h
Spd
kts
Gust
kts
24/11:30pm 7.1 4.2 4.4 83 1.2 S 9 11 5 6 1022.9 1023.0 0.0
24/11:00pm 8.5 6.0 4.9 78 1.6 S 7 11 4 6 1022.9 1023.0 0.0
24/10:30pm 9.7 7.0 5.7 76 1.9 SSW 9 11 5 6 1022.9 1023.0 0.0
24/10:00pm 10.0 7.4 6.2 77 1.8 S 9 13 5 7 1022.6 1022.7 0.0
24/09:30pm 9.8 7.8 6.2 78 1.7 S 6 9 3 5 1022.5 1022.6 0.0
24/09:00pm 9.8 7.2 6.2 78 1.7 S 9 15 5 8 1022.2 1022.3 0.0
24/08:30pm 9.8 6.4 6.0 77 1.8 SSW 13 17 7 9 1022.0 1022.1 0.0
24/08:00pm 9.6 6.6 5.8 77 1.8 SSW 11 13 6 7 1021.9 1022.0 0.0
24/07:30pm 9.2 6.5 5.6 78 1.7 SSW 9 15 5 8 1021.6 1021.8 0.0
24/07:00pm 9.1 6.3 5.3 77 1.7 S 9 13 5 7 1021.5 1021.7 0.0
24/06:30pm 9.4 6.2 5.2 75 1.9 S 11 15 6 8 1021.4 1021.6 0.0
24/06:00pm 9.4 6.3 5.4 76 1.8 SSE 11 15 6 8 1021.4 1021.6 0.0
24/05:30pm 10.5 7.0 5.5 71 2.3 S 13 19 7 10 1021.0 1021.2 0.0
24/05:00pm 11.0 7.5 5.5 69 2.6 S 13 24 7 13 1020.9 1021.1 0.0
24/04:30pm 11.7 6.6 5.8 67 2.8 S 22 30 12 16 1020.9 1021.1 0.0
24/04:00pm 12.0 7.7 5.4 64 3.1 S 17 30 9 16 1020.9 1021.1 0.0
24/03:30pm 12.1 7.5 5.7 65 3.0 S 19 32 10 17 1020.8 1021.0 0.0
24/03:00pm 12.4 7.5 5.3 62 3.3 S 20 30 11 16 1020.7 1020.9 0.0
24/02:30pm 12.7 7.9 5.4 61 3.4 S 20 32 11 17 1020.5 1020.7 0.0
24/02:00pm 12.4 7.5 4.9 60 3.5 S 20 32 11 17 1020.4 1020.6 0.0
24/01:30pm 12.3 7.0 4.8 60 3.5 S 22 32 12 17 1020.5 1020.7 0.0
24/01:00pm 12.7 7.4 4.9 59 3.6 SSE 22 39 12 21 1020.6 1020.8 0.0
24/12:30pm 11.7 5.3 5.1 64 3.1 SSE 28 35 15 19 1020.7 1020.9 0.0
24/12:00pm 12.7 6.9 6.1 64 3.1 SSE 26 39 14 21 1020.9 1021.1 0.0
24/11:30am 11.7 7.2 6.0 68 2.7 S 19 33 10 18 1021.2 1021.4 0.0
24/11:00am 11.8 7.6 5.9 67 2.8 SSE 17 30 9 16 1021.4 1021.6 0.0
24/10:30am 12.5 9.4 7.2 70 2.6 S 13 20 7 11 1021.2 1021.4 0.0
24/10:00am 10.8 7.0 6.0 72 2.2 S 15 20 8 11 1021.2 1021.4 0.0
24/09:30am 10.6 6.0 5.8 72 2.2 S 19 30 10 16 1021.0 1021.2 0.0
24/09:00am 10.7 6.1 5.7 71 2.3 S 19 28 10 15 1020.8 1021.0 0.0
24/08:30am 10.1 5.9 5.5 73 2.1 SSW 17 28 9 15 1020.5 1020.7 0.0
24/08:00am 9.6 6.5 5.6 76 1.8 SW 11 24 6 13 1020.3 1020.5 0.0
24/07:30am 10.2 5.4 5.6 73 2.1 S 20 32 11 17 1020.0 1020.2 0.0
24/07:00am 10.1 7.4 5.5 73 2.1 S 9 17 5 9 1019.6 1019.7 0.0
24/06:30am 10.0 6.9 5.6 74 2.0 S 11 20 6 11 1019.2 1019.3 0.0
24/06:00am 9.8 6.3 5.4 74 2.0 S 13 20 7 11 1019.2 1019.3 0.0
24/05:30am 9.7 5.8 5.3 74 2.0 S 15 22 8 12 1018.8 1018.9 0.0
24/05:00am 9.7 4.4 5.1 73 2.1 S 22 32 12 17 1018.6 1018.7 0.0
24/04:30am 9.7 4.3 4.7 71 2.3 S 22 32 12 17 1018.4 1018.5 0.0
24/04:00am 9.6 5.5 4.6 71 2.2 S 15 26 8 14 1018.2 1018.3 0.0
24/03:30am 9.6 5.2 4.6 71 2.3 SSW 17 30 9 16 1018.2 1018.3 0.0
24/03:00am 9.6 4.9 5.0 73 2.1 S 19 26 10 14 1018.2 1018.3 0.0
24/02:30am 9.4 5.8 5.2 75 1.9 S 13 22 7 12 1018.2 1018.3 0.0
24/02:00am 9.9 5.8 6.1 77 1.8 S 17 24 9 13 1018.1 1018.2 0.0
24/01:30am 8.7 6.3 7.0 89 0.8 SSW 9 13 5 7 1018.0 1018.1 0.0
24/01:00am 8.5 6.1 7.0 90 0.7 WSW 9 13 5 7 1017.8 1017.9 0.0
24/12:30am 9.2 6.9 7.5 89 0.8 SW 9 11 5 6 1017.7 1017.8 0.0
24/12:00am 10.0 7.5 8.1 88 0.9 SW 11 15 6 8 1017.7 1017.8 0.0
 
Date/Time
EST
Temp
°C
App
Temp
°C
Dew
Point
°C
Rel
Hum
%
Delta-T
°C
Wind Press
QNH
hPa
Press
MSL
hPa
Rain since
9am
mm
Dir  Spd
km/h
Gust
km/h
Spd
kts
Gust
kts
23/11:30pm 9.7 7.2 8.1 90 0.8 SW 11 17 6 9 1017.7 1017.8 0.0
23/11:00pm 9.1 6.5 7.9 92 0.6 SW 11 15 6 8 1017.7 1017.8 0.0
23/10:30pm 8.9 6.7 8.0 94 0.4 SW 9 13 5 7 1017.7 1017.8 0.0
23/10:00pm 7.6 5.7 6.7 94 0.4 SW 6 9 3 5 1017.7 1017.8 0.0
23/09:34pm 6.8 5.8 5.6 92 0.5 CALM 0 0 0 0 1017.7 1017.8 0.0
23/09:30pm 7.1 6.2 5.9 92 0.5 CALM 0 0 0 0 1017.7 1017.8 0.0
23/09:00pm 8.1 7.3 6.6 90 0.7 CALM 0 0 0 0 1017.5 1017.6 0.0
23/08:30pm 9.5 7.8 7.6 88 0.9 SW 6 7 3 4 1017.4 1017.5 0.0
23/08:00pm 9.8 7.6 7.9 88 0.9 SW 9 13 5 7 1017.4 1017.5 0.0
23/07:30pm 9.5 7.2 7.4 87 1.0 SW 9 11 5 6 1017.2 1017.3 0.0
23/07:00pm 11.0 9.2 8.1 82 1.4 S 7 9 4 5 1017.0 1017.1 0.0
23/06:30pm 11.8 9.7 8.3 79 1.7 SSW 9 13 5 7 1016.9 1017.0 0.0
23/06:00pm 12.2 9.6 7.9 75 2.1 S 11 15 6 8 1016.6 1016.8 0.0

Other formats

Comma delimited format used in spreadsheet applications
http://www.bom.gov.au/fwo/IDV60801/IDV60801.94855.axf

JavaScript Object Notation format (JSON) in row-major order
http://www.bom.gov.au/fwo/IDV60801/IDV60801.94855.json

Data quality

Most of these data are generated automatically and are frequently updated. Quality checks on data are not normally performed. It is possible for incorrect values to appear. Refer to information at About Latest Weather Observations and please check the disclaimer before using these data.